QTR3276 YPAD-YMML
Flight info
| Callsign | QTR3276 |
|---|---|
| Flight time | N/A |
| Altitude | 35000 |
| Route | AD V255 BENDO Y12 ARBEY H119 ML |
| Aircraft | B77W/H-SDE1E2E3FGHIJ2J3J4J5M1RWXY/LB1D1 |
Departure
| Time | 2025-09-05 08:11 |
|---|---|
| Airport | Adelaide International Airport (YPAD) |
Arrival
| Time | N/A |
|---|---|
| Airport | Melbourne Airport (YMML) |
| Time | Latitude | Longitude | Altitude | Speed | Heading |
|---|---|---|---|---|---|
| 2025-09-05 07:43 | -34.93896 | 138.53906 | 29 ft | 0 kts | 320° |
| 2025-09-05 07:54 | -34.93897 | 138.53907 | 29 ft | 0 kts | 320° |
| 2025-09-05 07:57 | -34.93917 | 138.53938 | 28 ft | 8 kts | 284° |
| 2025-09-05 07:57 | -34.93922 | 138.53967 | 27 ft | 16 kts | 289° |
| 2025-09-05 08:04 | -34.93992 | 138.53900 | 26 ft | 23 kts | 204° |
| 2025-09-05 08:04 | -34.94024 | 138.53870 | 30 ft | 0 kts | 226° |
| 2025-09-05 08:05 | -34.94043 | 138.53845 | 29 ft | 17 kts | 228° |
| 2025-09-05 08:05 | -34.94125 | 138.53727 | 29 ft | 16 kts | 230° |
| 2025-09-05 08:06 | -34.94392 | 138.53510 | 23 ft | 17 kts | 229° |
| 2025-09-05 08:06 | -34.94465 | 138.53400 | 21 ft | 17 kts | 232° |
| 2025-09-05 08:06 | -34.94502 | 138.53205 | 28 ft | 9 kts | 293° |
| 2025-09-05 08:07 | -34.94571 | 138.52884 | 28 ft | 33 kts | 218° |
| 2025-09-05 08:08 | -34.95104 | 138.52382 | 25 ft | 32 kts | 218° |
| 2025-09-05 08:08 | -34.95413 | 138.52022 | 30 ft | 30 kts | 229° |
| 2025-09-05 08:09 | -34.95644 | 138.51688 | 26 ft | 16 kts | 227° |
| 2025-09-05 08:09 | -34.95817 | 138.51705 | 16 ft | 11 kts | 131° |
| 2025-09-05 08:10 | -34.95624 | 138.52066 | 25 ft | 82 kts | 49° |
| 2025-09-05 08:10 | -34.95006 | 138.52949 | 174 ft | 180 kts | 51° |
| 2025-09-05 08:10 | -34.93294 | 138.55386 | 3120 ft | 201 kts | 56° |
| 2025-09-05 08:11 | -34.93687 | 138.59265 | 4107 ft | 271 kts | 114° |
| 2025-09-05 08:12 | -34.96210 | 138.65590 | 7451 ft | 282 kts | 111° |
| 2025-09-05 08:12 | -34.97812 | 138.70087 | 9501 ft | 295 kts | 112° |
| 2025-09-05 08:13 | -34.99464 | 138.74914 | 10911 ft | 330 kts | 112° |
| 2025-09-05 08:13 | -35.00365 | 138.77591 | 11135 ft | 363 kts | 112° |
| 2025-09-05 08:14 | -35.03386 | 138.86703 | 13731 ft | 397 kts | 112° |
| 2025-09-05 08:14 | -35.04414 | 138.89827 | 14911 ft | 397 kts | 112° |
| 2025-09-05 08:14 | -35.06514 | 138.96227 | 16648 ft | 415 kts | 112° |
| 2025-09-05 08:15 | -35.08701 | 139.02905 | 18469 ft | 430 kts | 113° |
| 2025-09-05 08:16 | -35.12071 | 139.13229 | 21086 ft | 443 kts | 114° |
| 2025-09-05 08:16 | -35.14373 | 139.20300 | 22772 ft | 453 kts | 114° |
| 2025-09-05 08:16 | -35.15541 | 139.23895 | 23585 ft | 457 kts | 114° |
| 2025-09-05 08:17 | -35.17921 | 139.31228 | 24850 ft | 470 kts | 115° |
| 2025-09-05 08:18 | -35.25469 | 139.54312 | 28283 ft | 503 kts | 118° |
| 2025-09-05 08:21 | -35.39019 | 139.90601 | 32584 ft | 530 kts | 120° |
| 2025-09-05 08:22 | -35.49564 | 140.19310 | 35273 ft | 539 kts | 120° |
| 2025-09-05 08:25 | -35.63050 | 140.56408 | 35286 ft | 529 kts | 120° |
| 2025-09-05 08:26 | -35.73439 | 140.85282 | 35297 ft | 526 kts | 119° |
| 2025-09-05 08:29 | -35.86556 | 141.22122 | 35309 ft | 523 kts | 118° |
| 2025-09-05 08:30 | -35.96221 | 141.49544 | 35463 ft | 527 kts | 118° |